Terminal Aerodrome Forecast
Issued by NWS

Home | Current Version | Previous Version | Text Only | Print | Product List | Glossary On
Versions: 1 2 3 4 5 6 7 8 9 10 11 12 13 14 15 16 17 18 19
000
FTUS45 KTFX 010500
TAFGTF
TAF
KGTF 010523Z 0106/0206 02006KT P6SM BKN040
     FM011000 15006KT P6SM SKC
      TEMPO 0111/0115 2SM BR BKN007
     FM011600 15007KT P6SM BKN250
     FM012200 20014KT P6SM BKN080
     FM020300 22013KT P6SM VCSH SCT030 OVC050=

USA.gov is the U.S. government's official web portal to all federal, state and local government web resources and services.